createdAt,value
2022-07-31T00:03:47.698Z,99.90
2022-07-31T00:08:31.558Z,99.90
2022-07-31T00:13:15.219Z,99.90
2022-07-31T00:18:00.611Z,99.90
2022-07-31T00:22:45.071Z,99.90
2022-07-31T00:27:28.554Z,99.90
2022-07-31T00:32:12.526Z,99.90
2022-07-31T00:36:57.393Z,99.90
2022-07-31T00:41:42.535Z,99.90
2022-07-31T00:46:26.006Z,99.90
2022-07-31T00:51:10.421Z,99.90
2022-07-31T00:55:57.224Z,99.90
2022-07-31T01:00:40.969Z,99.90
2022-07-31T01:05:24.618Z,99.90
2022-07-31T01:10:12.399Z,99.90
2022-07-31T01:15:01.440Z,99.90
2022-07-31T01:19:46.679Z,99.90
2022-07-31T01:24:46.497Z,99.90
2022-07-31T01:29:34.180Z,99.90
2022-07-31T01:34:27.456Z,99.90
2022-07-31T01:39:10.983Z,99.90
2022-07-31T01:43:57.204Z,99.90
2022-07-31T01:48:44.006Z,99.90
2022-07-31T01:53:31.355Z,99.90
2022-07-31T01:58:18.504Z,99.90
2022-07-31T02:03:09.957Z,99.90
2022-07-31T02:07:57.438Z,99.90
2022-07-31T02:12:43.307Z,99.90
2022-07-31T02:17:27.379Z,99.90
2022-07-31T02:22:11.076Z,99.90
2022-07-31T02:26:56.251Z,99.90
2022-07-31T02:31:40.514Z,99.90
2022-07-31T02:36:26.007Z,99.90
2022-07-31T02:41:11.668Z,99.90
2022-07-31T02:45:57.771Z,99.90
2022-07-31T02:50:41.473Z,99.90
2022-07-31T02:55:25.830Z,99.90
2022-07-31T03:00:24.132Z,99.90
2022-07-31T03:05:10.024Z,99.90
2022-07-31T03:09:53.600Z,99.90
2022-07-31T03:14:38.202Z,99.90
2022-07-31T03:19:24.134Z,99.90
2022-07-31T03:24:10.733Z,99.90
2022-07-31T03:28:55.344Z,99.90
2022-07-31T03:33:38.890Z,99.90
2022-07-31T03:38:32.875Z,99.90
2022-07-31T03:43:29.931Z,99.90
2022-07-31T03:48:28.599Z,99.90
2022-07-31T03:53:14.579Z,99.90
2022-07-31T03:57:58.797Z,99.90
2022-07-31T04:02:44.054Z,99.90
2022-07-31T04:07:28.016Z,99.90
2022-07-31T04:12:11.600Z,99.90
2022-07-31T04:16:55.086Z,99.90
2022-07-31T04:21:40.049Z,99.90
2022-07-31T04:26:26.155Z,99.90
2022-07-31T04:31:10.003Z,99.90
2022-07-31T04:35:53.977Z,99.90
2022-07-31T04:40:39.189Z,99.90
2022-07-31T04:45:22.654Z,99.90
2022-07-31T04:50:08.231Z,99.90
2022-07-31T04:54:51.643Z,99.90
2022-07-31T04:59:59.912Z,99.90
2022-07-31T05:04:39.999Z,99.90
2022-07-31T05:09:25.488Z,99.90
2022-07-31T05:14:11.256Z,99.90
2022-07-31T05:18:56.349Z,99.90
2022-07-31T05:23:40.225Z,99.90
2022-07-31T05:28:27.141Z,99.90
2022-07-31T05:33:13.641Z,99.90
2022-07-31T05:38:01.164Z,99.90
2022-07-31T05:42:45.024Z,99.90
2022-07-31T05:47:40.232Z,99.90
2022-07-31T05:52:24.525Z,99.90
2022-07-31T05:57:09.342Z,99.90
2022-07-31T06:01:52.858Z,99.90
2022-07-31T06:06:36.425Z,99.90
2022-07-31T06:11:19.894Z,99.90
2022-07-31T06:16:05.383Z,99.90
2022-07-31T06:20:49.020Z,99.90
2022-07-31T06:25:35.100Z,99.90
2022-07-31T06:30:22.753Z,99.90
2022-07-31T06:35:09.190Z,99.90
2022-07-31T06:39:54.705Z,99.90
2022-07-31T06:44:43.209Z,99.90
2022-07-31T06:49:29.904Z,99.90
2022-07-31T06:54:14.930Z,99.90
2022-07-31T06:58:58.944Z,99.90
2022-07-31T07:03:42.508Z,99.90
2022-07-31T07:08:25.979Z,99.90
2022-07-31T07:13:10.855Z,99.90
2022-07-31T07:17:54.367Z,99.90
2022-07-31T07:22:37.964Z,99.90
2022-07-31T07:27:21.597Z,99.90
2022-07-31T07:32:07.325Z,99.90
2022-07-31T07:36:50.828Z,99.90
2022-07-31T07:41:34.379Z,99.90
2022-07-31T07:46:17.912Z,99.90
2022-07-31T07:51:02.997Z,99.90
2022-07-31T07:55:46.553Z,99.90
2022-07-31T08:00:30.215Z,99.90
2022-07-31T08:05:14.209Z,99.90
2022-07-31T08:10:00.073Z,99.90
2022-07-31T08:14:43.641Z,99.90
2022-07-31T08:19:27.159Z,99.90
2022-07-31T08:24:11.662Z,99.90
2022-07-31T08:28:56.592Z,99.90
2022-07-31T08:33:40.030Z,99.90
2022-07-31T08:38:23.713Z,99.90
2022-07-31T08:43:07.472Z,99.90
2022-07-31T08:48:07.671Z,99.90
2022-07-31T08:52:54.803Z,99.90
2022-07-31T08:57:38.604Z,99.90
2022-07-31T09:02:22.215Z,99.90
2022-07-31T09:07:11.198Z,99.90
2022-07-31T09:11:55.099Z,99.90
2022-07-31T09:16:47.110Z,99.90
2022-07-31T09:21:40.228Z,99.90
2022-07-31T09:26:34.907Z,99.90
2022-07-31T09:31:18.514Z,99.90
2022-07-31T09:36:02.187Z,99.90
2022-07-31T09:40:57.195Z,99.90
2022-07-31T09:45:47.877Z,99.70
2022-07-31T09:50:33.535Z,99.60
2022-07-31T09:55:18.211Z,97.60
2022-07-31T10:00:02.836Z,97.50
2022-07-31T10:04:50.569Z,95.40
2022-07-31T10:09:35.976Z,96.70
2022-07-31T10:14:26.372Z,94.10
2022-07-31T10:19:14.357Z,93.80
2022-07-31T10:24:02.755Z,95.20
2022-07-31T10:28:47.891Z,96.10
2022-07-31T10:33:48.756Z,98.70
2022-07-31T10:38:38.605Z,97.60
2022-07-31T10:43:29.424Z,99.40
2022-07-31T10:48:13.381Z,99.00
2022-07-31T10:53:04.723Z,96.50
2022-07-31T10:57:55.902Z,93.80
2022-07-31T11:02:42.414Z,93.30
2022-07-31T11:07:25.939Z,94.90
2022-07-31T11:12:19.711Z,92.30
2022-07-31T11:17:04.654Z,91.70
2022-07-31T11:21:49.990Z,91.70
2022-07-31T11:26:41.394Z,92.40
2022-07-31T11:31:31.188Z,89.90
2022-07-31T11:36:16.191Z,86.30
2022-07-31T11:41:01.299Z,82.00
2022-07-31T11:45:52.817Z,90.40
2022-07-31T11:50:41.588Z,91.30
2022-07-31T11:55:25.204Z,90.90
2022-07-31T12:00:26.799Z,91.60
2022-07-31T12:05:15.048Z,93.30
2022-07-31T12:10:00.770Z,93.10
2022-07-31T12:14:47.313Z,93.10
2022-07-31T12:19:37.384Z,94.80
2022-07-31T12:24:23.147Z,94.70
2022-07-31T12:29:08.447Z,94.90
2022-07-31T12:33:52.046Z,95.80
2022-07-31T12:38:44.887Z,94.20
2022-07-31T12:43:29.447Z,94.80
2022-07-31T12:48:16.037Z,91.80
2022-07-31T12:53:03.596Z,93.40
2022-07-31T12:57:51.687Z,91.10
2022-07-31T13:02:38.003Z,92.90
2022-07-31T13:07:21.931Z,91.50
2022-07-31T13:12:05.968Z,90.80
2022-07-31T13:16:52.268Z,86.40
2022-07-31T13:21:47.991Z,88.10
2022-07-31T13:26:33.501Z,86.70
2022-07-31T13:31:17.038Z,81.50
2022-07-31T13:36:02.507Z,82.80
2022-07-31T13:41:03.697Z,84.50
2022-07-31T13:45:47.620Z,89.40
2022-07-31T13:50:31.358Z,79.50
2022-07-31T13:55:16.463Z,82.90
2022-07-31T14:00:00.187Z,79.60
2022-07-31T14:04:43.880Z,84.70
2022-07-31T14:09:29.595Z,84.20
2022-07-31T14:14:22.886Z,87.60
2022-07-31T14:19:21.262Z,82.70
2022-07-31T14:24:05.538Z,78.70
2022-07-31T14:28:51.591Z,71.60
2022-07-31T14:33:36.792Z,68.00
2022-07-31T14:38:27.635Z,68.00
2022-07-31T14:43:12.775Z,66.30
2022-07-31T14:47:56.844Z,72.00
2022-07-31T14:52:41.964Z,71.40
2022-07-31T14:57:25.685Z,68.70
2022-07-31T15:02:09.306Z,69.10
2022-07-31T15:07:03.029Z,65.20
2022-07-31T15:11:59.971Z,67.50
2022-07-31T15:16:45.650Z,68.60
2022-07-31T15:21:33.619Z,74.30
2022-07-31T15:26:17.247Z,74.00
2022-07-31T15:31:02.346Z,69.00
2022-07-31T15:36:44.205Z,71.20
2022-07-31T15:47:18.041Z,71.10
2022-07-31T15:52:01.904Z,70.30
2022-07-31T15:57:07.248Z,70.80
2022-07-31T16:01:51.141Z,70.40
2022-07-31T16:12:39.024Z,68.60
2022-07-31T16:17:22.616Z,67.80
2022-07-31T16:22:06.452Z,69.50
2022-07-31T16:32:53.910Z,72.60
2022-07-31T16:37:53.870Z,74.60
2022-07-31T16:42:38.031Z,75.30
2022-07-31T16:54:13.071Z,78.00
2022-07-31T16:58:44.261Z,78.80
2022-07-31T17:04:03.965Z,79.50
2022-07-31T17:08:49.436Z,78.60
2022-07-31T17:13:33.083Z,80.10
2022-07-31T17:18:16.776Z,80.90
2022-07-31T17:23:00.819Z,81.70
2022-07-31T17:27:52.085Z,82.50
2022-07-31T17:32:35.988Z,82.10
2022-07-31T17:37:22.001Z,85.40
2022-07-31T17:42:06.119Z,85.00
2022-07-31T17:46:54.394Z,85.40
2022-07-31T17:51:37.930Z,87.80
2022-07-31T17:56:41.452Z,88.10
2022-07-31T18:01:28.917Z,90.10
2022-07-31T18:06:14.212Z,89.90
2022-07-31T18:10:57.774Z,90.50
2022-07-31T18:15:42.671Z,91.20
2022-07-31T18:20:26.409Z,91.30
2022-07-31T18:25:12.048Z,92.00
2022-07-31T18:29:56.295Z,92.40
2022-07-31T18:34:39.970Z,92.70
2022-07-31T18:39:24.266Z,92.70
2022-07-31T18:44:09.555Z,93.50
2022-07-31T18:48:55.930Z,94.90
2022-07-31T18:53:39.975Z,95.80
2022-07-31T18:58:23.618Z,95.40
2022-07-31T19:03:09.766Z,94.90
2022-07-31T19:07:53.565Z,95.70
2022-07-31T19:12:39.021Z,95.30
2022-07-31T19:17:23.342Z,95.90
2022-07-31T19:22:13.892Z,95.90
2022-07-31T19:26:57.595Z,95.30
2022-07-31T19:31:41.490Z,95.40
2022-07-31T19:36:26.307Z,95.90
2022-07-31T19:41:11.968Z,96.90
2022-07-31T19:46:09.662Z,96.90
2022-07-31T19:50:55.825Z,97.40
2022-07-31T19:55:39.986Z,97.20
2022-07-31T20:00:25.289Z,97.00
2022-07-31T20:05:09.995Z,95.90
2022-07-31T20:09:53.686Z,95.40
2022-07-31T20:14:37.350Z,95.30
2022-07-31T20:19:22.383Z,95.10
2022-07-31T20:24:06.863Z,94.70
2022-07-31T20:28:57.247Z,94.60
2022-07-31T20:34:01.629Z,94.80
2022-07-31T20:38:46.632Z,95.20
2022-07-31T20:43:33.159Z,95.30
2022-07-31T20:48:17.895Z,95.60
2022-07-31T20:53:01.811Z,96.10
2022-07-31T20:57:55.365Z,96.70
2022-07-31T21:02:52.985Z,97.00
2022-07-31T21:07:41.028Z,97.80
2022-07-31T21:12:37.773Z,97.80
2022-07-31T21:28:26.342Z,99.80
2022-07-31T21:33:16.420Z,99.90
2022-07-31T21:38:00.680Z,99.90
2022-07-31T21:42:45.569Z,99.90
2022-07-31T21:47:52.887Z,99.90
2022-07-31T21:52:36.648Z,99.90
2022-07-31T21:57:20.259Z,99.90
2022-07-31T22:02:03.904Z,99.90
2022-07-31T22:07:19.437Z,99.90
2022-07-31T22:12:04.566Z,99.90
2022-07-31T22:16:48.390Z,99.90
2022-07-31T22:21:32.330Z,99.90
2022-07-31T22:26:16.929Z,99.90
2022-07-31T22:31:02.550Z,99.90
2022-07-31T22:35:59.416Z,99.90
2022-07-31T22:40:44.326Z,99.90
2022-07-31T22:45:28.443Z,99.90
2022-07-31T22:50:14.770Z,99.90
2022-07-31T22:54:58.416Z,99.90
2022-07-31T22:59:42.263Z,99.90
2022-07-31T23:04:25.791Z,99.90
2022-07-31T23:09:10.832Z,99.90
2022-07-31T23:13:54.673Z,99.90
2022-07-31T23:18:38.217Z,99.90
2022-07-31T23:23:22.030Z,99.60
2022-07-31T23:28:07.108Z,99.10
2022-07-31T23:32:51.178Z,98.90
2022-07-31T23:37:34.722Z,98.90
2022-07-31T23:42:35.585Z,99.40
2022-07-31T23:47:20.566Z,99.70
2022-07-31T23:52:05.141Z,99.90
2022-07-31T23:56:48.905Z,99.90
